Time;durP1;ratioP1;P1;durP2;ratioP2;P2;SDS_P1;SDS_P2;PMS_P1;PMS_P2;Temp;Humidity;BMP_temperature;BMP_pressure;BME280_temperature;BME280_humidity;BME280_pressure;Samples;Min_cycle;Max_cycle;Signal;HPM_P1;HPM_P2
2021/10/28 00:13:33;;;;;;;11.30;8.77;;;13.00;99.90;;;;;;5052248;28;20458;-67
2021/10/28 00:16:10;;;;;;;10.67;7.97;;;13.00;99.90;;;;;;5051401;28;20455;-68
2021/10/28 00:18:41;;;;;;;11.80;8.87;;;12.90;99.90;;;;;;5052032;28;20526;-68
2021/10/28 00:21:08;;;;;;;10.00;9.00;;;12.90;99.90;;;;;;5053059;28;20434;-67
2021/10/28 00:23:41;;;;;;;8.70;7.80;;;12.90;99.90;;;;;;5052364;28;20402;-68
2021/10/28 00:26:08;;;;;;;9.50;8.60;;;12.90;99.90;;;;;;5052904;28;20408;-67
2021/10/28 00:28:35;;;;;;;9.23;8.20;;;12.90;99.90;;;;;;5052237;28;20505;-68
2021/10/28 00:31:02;;;;;;;9.30;7.70;;;12.90;99.90;;;;;;5052794;28;20892;-68
2021/10/28 00:33:29;;;;;;;10.00;9.00;;;12.90;99.90;;;;;;5051927;28;20514;-68
2021/10/28 00:35:55;;;;;;;9.63;8.63;;;12.90;99.90;;;;;;5052626;28;20455;-68
2021/10/28 00:38:21;;;;;;;9.77;8.00;;;12.90;99.90;;;;;;5052194;28;20419;-69
2021/10/28 00:40:47;;;;;;;9.77;8.77;;;12.90;99.90;;;;;;5052498;28;20223;-67
2021/10/28 00:43:12;;;;;;;9.10;8.30;;;12.90;99.90;;;;;;5052635;28;20420;-67
2021/10/28 00:45:40;;;;;;;8.80;8.07;;;12.90;99.90;;;;;;5052106;28;20225;-67
2021/10/28 00:48:07;;;;;;;8.93;8.13;;;13.00;99.90;;;;;;5052582;28;20244;-68
2021/10/28 00:50:34;;;;;;;9.47;8.40;;;13.00;99.90;;;;;;5051931;28;20424;-68
2021/10/28 00:53:01;;;;;;;8.70;7.77;;;12.90;99.90;;;;;;5051343;28;20409;-68
2021/10/28 00:55:27;;;;;;;8.53;7.73;;;12.90;99.90;;;;;;5051798;28;20941;-68
2021/10/28 00:57:54;;;;;;;8.53;7.63;;;12.90;99.90;;;;;;5051308;28;20467;-68
2021/10/28 01:00:19;;;;;;;7.53;6.83;;;12.90;99.90;;;;;;5052456;28;20407;-67
2021/10/28 01:02:45;;;;;;;7.57;6.87;;;12.90;99.90;;;;;;5051285;28;20485;-68
2021/10/28 01:05:11;;;;;;;7.60;7.00;;;13.00;99.90;;;;;;5052435;28;20175;-67
2021/10/28 01:07:38;;;;;;;11.90;7.37;;;13.00;99.90;;;;;;5051804;28;20485;-68
2021/10/28 01:10:04;;;;;;;7.43;6.77;;;13.00;99.90;;;;;;5052000;28;20427;-67
2021/10/28 01:12:30;;;;;;;7.73;6.93;;;13.00;99.90;;;;;;5051766;28;20548;-68
2021/10/28 01:14:55;;;;;;;8.67;6.97;;;13.00;99.90;;;;;;5052799;28;20506;-67
2021/10/28 01:17:21;;;;;;;8.20;7.50;;;12.90;99.90;;;;;;5052345;28;20226;-68
2021/10/28 01:19:52;;;;;;;8.30;7.00;;;13.00;99.90;;;;;;5052269;28;20181;-67
2021/10/28 01:22:18;;;;;;;7.30;6.70;;;12.90;99.90;;;;;;5056057;28;20939;-68
2021/10/28 01:24:44;;;;;;;7.80;7.10;;;13.00;99.90;;;;;;5055698;28;20414;-67
2021/10/28 01:27:10;;;;;;;7.50;6.20;;;12.90;99.90;;;;;;5056234;28;20413;-67
2021/10/28 01:29:36;;;;;;;7.40;6.70;;;12.90;99.90;;;;;;5054439;28;20778;-68
2021/10/28 01:32:04;;;;;;;7.60;6.80;;;12.90;99.90;;;;;;5055136;28;20176;-67
2021/10/28 01:34:30;;;;;;;8.00;6.60;;;12.90;99.90;;;;;;5055576;28;20443;-68
2021/10/28 01:36:57;;;;;;;7.40;6.70;;;12.90;99.90;;;;;;5054910;28;20576;-68
2021/10/28 01:39:24;;;;;;;7.20;6.50;;;12.90;99.90;;;;;;5056089;28;20403;-68
2021/10/28 01:41:52;;;;;;;8.17;7.47;;;12.80;99.90;;;;;;5056142;28;20433;-68
2021/10/28 01:44:18;;;;;;;7.73;7.03;;;12.90;99.90;;;;;;5055189;28;20828;-68
2021/10/28 01:46:44;;;;;;;7.10;6.40;;;12.80;99.90;;;;;;5055539;28;20437;-68
2021/10/28 01:49:27;;;;;;;10.97;8.00;;;12.80;99.90;;;;;;5055799;28;20407;-68
2021/10/28 01:51:54;;;;;;;7.50;6.83;;;12.80;99.90;;;;;;5055544;28;20494;-67
2021/10/28 01:54:25;;;;;;;7.50;6.90;;;12.80;99.90;;;;;;5055757;28;20447;-68
2021/10/28 01:56:51;;;;;;;7.90;7.20;;;12.80;99.90;;;;;;5055641;28;20441;-68
2021/10/28 01:59:17;;;;;;;8.30;7.33;;;12.80;99.90;;;;;;5055663;28;20423;-67
2021/10/28 02:01:44;;;;;;;9.40;8.50;;;12.70;99.90;;;;;;5055037;28;20765;-67
2021/10/28 02:04:10;;;;;;;7.47;6.67;;;12.70;99.90;;;;;;5055040;28;20414;-67
2021/10/28 02:06:36;;;;;;;7.63;6.90;;;12.70;99.90;;;;;;5053741;28;20499;-68
2021/10/28 02:09:02;;;;;;;8.87;7.97;;;12.70;99.90;;;;;;5055475;28;20894;-68
2021/10/28 02:11:28;;;;;;;8.43;7.73;;;12.70;99.90;;;;;;5055077;28;20414;-68
2021/10/28 02:13:58;;;;;;;10.70;7.97;;;12.70;99.90;;;;;;5055228;28;20482;-67
2021/10/28 02:16:29;;;;;;;8.37;7.57;;;12.80;99.90;;;;;;5055252;28;20977;-68
2021/10/28 02:18:54;;;;;;;8.80;7.87;;;12.80;99.90;;;;;;5055618;28;20802;-68
2021/10/28 02:21:20;;;;;;;8.10;7.33;;;12.80;99.90;;;;;;5055265;28;20410;-68
2021/10/28 02:23:46;;;;;;;8.67;7.40;;;12.70;99.90;;;;;;5054375;28;20677;-67
2021/10/28 02:26:12;;;;;;;7.90;7.30;;;12.70;99.90;;;;;;5055519;28;20427;-68
2021/10/28 02:28:37;;;;;;;7.80;7.13;;;12.80;99.90;;;;;;5054483;28;20172;-68
2021/10/28 02:31:03;;;;;;;8.30;7.60;;;12.70;99.90;;;;;;5055036;28;20198;-67
2021/10/28 02:33:29;;;;;;;8.50;7.70;;;12.70;99.90;;;;;;5053499;28;20180;-68
2021/10/28 02:35:54;;;;;;;7.67;7.00;;;12.60;99.90;;;;;;5055067;28;20360;-67
2021/10/28 02:38:20;;;;;;;7.37;6.77;;;12.60;99.90;;;;;;5053827;28;20189;-67
2021/10/28 02:40:46;;;;;;;7.50;6.90;;;12.60;99.90;;;;;;5054260;28;20760;-67
2021/10/28 02:43:12;;;;;;;8.40;7.60;;;12.60;99.90;;;;;;5054908;28;20261;-68
2021/10/28 02:45:37;;;;;;;8.83;7.97;;;12.50;99.90;;;;;;5054401;28;20232;-68
2021/10/28 02:48:03;;;;;;;10.27;9.27;;;12.50;99.90;;;;;;5054825;28;20188;-68
2021/10/28 02:50:29;;;;;;;11.90;8.97;;;12.50;99.90;;;;;;5054129;28;20621;-68
2021/10/28 02:52:55;;;;;;;9.83;8.83;;;12.60;99.90;;;;;;5054646;28;20408;-68
2021/10/28 02:55:21;;;;;;;9.43;7.97;;;12.60;99.90;;;;;;5054602;28;20460;-67
2021/10/28 02:57:46;;;;;;;9.20;8.30;;;12.70;99.90;;;;;;5054035;28;20182;-69
2021/10/28 03:00:13;;;;;;;8.73;7.40;;;12.70;99.90;;;;;;5054589;28;20401;-69
2021/10/28 03:02:39;;;;;;;8.83;8.03;;;12.70;99.90;;;;;;5053942;28;20180;-69
2021/10/28 03:05:06;;;;;;;10.33;9.23;;;12.70;99.90;;;;;;5053151;28;20765;-69
2021/10/28 03:07:34;;;;;;;9.23;8.30;;;12.60;99.90;;;;;;5053896;28;20407;-71
2021/10/28 03:10:01;;;;;;;12.93;9.70;;;12.60;99.90;;;;;;5054341;28;20413;-69
2021/10/28 03:12:27;;;;;;;9.80;8.33;;;12.60;99.90;;;;;;5054330;28;20400;-68
2021/10/28 03:14:56;;;;;;;10.07;9.07;;;12.60;99.90;;;;;;5053888;28;20414;-69
2021/10/28 03:27:49;;;;;;;10.47;9.27;;;12.60;99.90;;;;;;5053506;28;20404;-69
2021/10/28 03:30:14;;;;;;;12.40;9.67;;;12.50;99.90;;;;;;5054031;28;20416;-68
2021/10/28 03:32:41;;;;;;;10.83;9.47;;;12.60;99.90;;;;;;5053034;28;20412;-69
2021/10/28 03:35:10;;;;;;;10.03;8.93;;;12.60;99.90;;;;;;5053798;28;20261;-69
2021/10/28 03:37:41;;;;;;;10.50;9.50;;;12.60;99.90;;;;;;5053237;28;20442;-69
2021/10/28 04:17:51;;;;;;;16.97;13.83;;;13.00;99.90;;;;;;5050423;28;20433;-69
2021/10/28 04:31:01;;;;;;;16.07;13.00;;;13.00;99.90;;;;;;5052989;28;20402;-69
2021/10/28 04:33:27;;;;;;;15.70;14.13;;;12.90;99.90;;;;;;5052925;28;20421;-69
2021/10/28 04:35:53;;;;;;;15.73;13.10;;;12.90;99.90;;;;;;5052158;28;20432;-69
2021/10/28 04:38:19;;;;;;;16.43;14.80;;;12.90;99.90;;;;;;5052776;28;20816;-69
2021/10/28 04:40:45;;;;;;;17.73;14.50;;;12.90;99.90;;;;;;5052163;28;20196;-69
2021/10/28 04:43:10;;;;;;;13.50;12.07;;;12.90;99.90;;;;;;5052601;28;20175;-69
2021/10/28 04:45:36;;;;;;;15.37;13.90;;;12.80;99.90;;;;;;5051635;28;20585;-69
2021/10/28 04:48:02;;;;;;;13.77;12.20;;;12.80;99.90;;;;;;5052547;28;20177;-69
2021/10/28 04:50:28;;;;;;;15.30;12.50;;;12.70;99.90;;;;;;5052419;28;20179;-69
2021/10/28 04:52:53;;;;;;;17.43;12.40;;;12.80;99.90;;;;;;5050109;28;20417;-70
2021/10/28 04:55:19;;;;;;;18.60;15.30;;;12.80;99.90;;;;;;5050391;28;20176;-72
2021/10/28 04:57:45;;;;;;;15.70;12.17;;;12.80;99.90;;;;;;5050544;28;20186;-69
2021/10/28 05:00:11;;;;;;;19.60;14.80;;;12.70;99.90;;;;;;5051990;28;20181;-69
2021/10/28 05:02:37;;;;;;;18.67;14.30;;;12.80;99.90;;;;;;5051575;28;20175;-70
2021/10/28 05:05:03;;;;;;;18.00;16.07;;;12.90;99.90;;;;;;5052757;28;20556;-69
2021/10/28 05:07:29;;;;;;;17.20;14.00;;;12.80;99.90;;;;;;5052409;28;20411;-69
2021/10/28 05:09:55;;;;;;;15.13;12.80;;;12.90;99.90;;;;;;5051493;28;20517;-69
2021/10/28 05:12:20;;;;;;;17.57;12.60;;;12.90;99.90;;;;;;5052330;28;20173;-69
2021/10/28 05:14:46;;;;;;;26.20;21.80;;;12.90;99.90;;;;;;5052678;28;20183;-69
2021/10/28 05:17:11;;;;;;;27.87;17.07;;;12.80;99.90;;;;;;5063172;28;20417;-69
2021/10/28 05:19:38;;;;;;;27.80;20.17;;;12.80;99.90;;;;;;5071728;28;20659;-69
2021/10/28 05:22:08;;;;;;;31.90;23.93;;;12.80;99.90;;;;;;5056866;28;20203;-69
2021/10/28 05:24:34;;;;;;;21.53;17.30;;;12.90;99.90;;;;;;5052649;28;20465;-69
2021/10/28 05:27:00;;;;;;;19.20;15.33;;;12.90;99.90;;;;;;5051435;28;20955;-69
2021/10/28 05:29:29;;;;;;;22.00;13.53;;;12.90;99.90;;;;;;5051843;28;20449;-69
2021/10/28 05:31:55;;;;;;;19.13;13.37;;;12.90;99.90;;;;;;5051046;28;20421;-69
2021/10/28 05:34:21;;;;;;;18.67;12.30;;;13.00;99.90;;;;;;5052282;28;20409;-68
2021/10/28 05:36:47;;;;;;;13.37;11.30;;;12.80;99.90;;;;;;5051528;28;20461;-69
2021/10/28 05:39:13;;;;;;;16.80;11.17;;;12.90;99.90;;;;;;5051665;28;20205;-69
2021/10/28 05:41:39;;;;;;;15.97;13.83;;;12.80;99.90;;;;;;5050940;28;20934;-75
2021/10/28 05:44:04;;;;;;;14.47;11.93;;;12.90;99.90;;;;;;5049630;28;20265;-68
2021/10/28 05:46:36;;;;;;;17.33;12.53;;;12.90;99.90;;;;;;5050906;28;20204;-67
2021/10/28 05:49:03;;;;;;;17.23;15.53;;;12.90;99.90;;;;;;5051448;28;20585;-67
2021/10/28 05:51:29;;;;;;;14.73;12.60;;;12.90;99.90;;;;;;5050388;28;20447;-67
2021/10/28 05:53:55;;;;;;;15.53;12.30;;;12.90;99.90;;;;;;5051597;28;20411;-67
2021/10/28 05:56:21;;;;;;;15.60;12.73;;;12.80;99.90;;;;;;5051858;28;20477;-68
2021/10/28 05:58:46;;;;;;;16.90;15.10;;;12.80;99.90;;;;;;5051070;28;20422;-67
2021/10/28 06:01:12;;;;;;;13.50;12.10;;;12.80;99.90;;;;;;5051656;28;20461;-68
2021/10/28 06:03:38;;;;;;;13.43;11.90;;;12.80;99.90;;;;;;5051851;28;20177;-76
2021/10/28 06:06:05;;;;;;;15.07;12.53;;;12.70;99.90;;;;;;5052026;28;20212;-68
2021/10/28 06:08:32;;;;;;;14.30;11.70;;;12.70;99.90;;;;;;5054335;28;20417;-68
2021/10/28 06:10:58;;;;;;;12.40;10.10;;;12.70;99.90;;;;;;5054887;28;21015;-68
2021/10/28 06:13:24;;;;;;;13.57;10.97;;;12.70;99.90;;;;;;5055284;28;20451;-68
2021/10/28 06:15:50;;;;;;;16.50;11.77;;;12.70;99.90;;;;;;5054524;28;20466;-68
2021/10/28 06:20:43;;;;;;;14.37;11.10;;;12.70;99.90;;;;;;5054744;28;20169;-68
2021/10/28 06:23:09;;;;;;;14.43;12.40;;;12.60;99.90;;;;;;5055198;28;20231;-68
2021/10/28 06:25:34;;;;;;;15.23;13.40;;;12.60;99.90;;;;;;5054536;28;20822;-67
2021/10/28 06:28:01;;;;;;;14.87;10.50;;;12.60;99.90;;;;;;5054371;28;20907;-68
2021/10/28 06:30:27;;;;;;;15.60;12.20;;;12.60;99.90;;;;;;5055203;28;20411;-69
2021/10/28 06:32:59;;;;;;;14.90;13.40;;;12.60;99.90;;;;;;5054237;28;20966;-69
2021/10/28 06:35:25;;;;;;;20.53;12.37;;;12.60;99.90;;;;;;5053974;28;20184;-68
2021/10/28 06:37:51;;;;;;;13.40;11.30;;;12.60;99.90;;;;;;5053873;28;20502;-69
2021/10/28 06:40:25;;;;;;;14.47;12.93;;;12.60;99.90;;;;;;5054924;28;20422;-69
2021/10/28 06:42:52;;;;;;;16.60;11.30;;;12.70;99.90;;;;;;5054307;28;20414;-68
2021/10/28 06:45:19;;;;;;;14.80;11.70;;;12.60;99.90;;;;;;5054467;28;20454;-68
2021/10/28 06:47:45;;;;;;;15.13;13.07;;;12.60;99.90;;;;;;5052886;28;20471;-69
2021/10/28 06:50:15;;;;;;;14.33;11.73;;;12.60;99.90;;;;;;5054651;28;20946;-68
2021/10/28 06:52:51;;;;;;;15.53;11.80;;;12.70;99.90;;;;;;5055155;28;20496;-89
2021/10/28 07:03:28;;;;;;;15.60;13.07;;;12.60;99.90;;;;;;5054687;28;20386;-69
2021/10/28 07:06:09;;;;;;;12.90;11.30;;;12.60;99.90;;;;;;5053922;28;20450;-68
2021/10/28 07:08:37;;;;;;;16.97;12.83;;;12.50;99.90;;;;;;5054531;28;20425;-69
2021/10/28 07:11:08;;;;;;;17.53;15.77;;;12.70;99.90;;;;;;5053548;28;20914;-68
2021/10/28 07:13:35;;;;;;;15.33;11.93;;;12.60;99.90;;;;;;5054114;28;20457;-69
2021/10/28 07:16:12;;;;;;;17.37;12.80;;;12.60;99.90;;;;;;5053759;28;20550;-69
2021/10/28 07:26:46;;;;;;;16.83;14.13;;;12.70;99.90;;;;;;5053846;28;20926;-68
2021/10/28 07:32:25;;;;;;;18.20;15.30;;;12.80;99.90;;;;;;5053284;28;20423;-69
2021/10/28 08:18:02;;;;;;;7.67;5.63;;;14.30;99.90;;;;;;5012222;28;20464;-68
2021/10/28 08:31:04;;;;;;;6.40;5.90;;;14.70;99.00;;;;;;5011961;28;20420;-68
2021/10/28 08:33:31;;;;;;;6.63;6.00;;;14.80;99.30;;;;;;5013198;28;20962;-68
2021/10/28 08:36:07;;;;;;;6.93;4.97;;;14.90;98.50;;;;;;5012546;28;20216;-68
2021/10/28 08:38:40;;;;;;;5.70;5.20;;;14.90;98.60;;;;;;5012850;28;20727;-68
2021/10/28 08:41:08;;;;;;;9.80;9.03;;;15.00;98.80;;;;;;5012501;28;20522;-68
2021/10/28 08:43:40;;;;;;;7.80;7.10;;;15.10;97.90;;;;;;5013005;28;20476;-68
2021/10/28 08:46:08;;;;;;;5.67;5.23;;;15.10;97.60;;;;;;5012508;28;20409;-69
2021/10/28 08:48:37;;;;;;;8.57;7.97;;;15.30;98.60;;;;;;5012985;28;20424;-68
2021/10/28 08:51:07;;;;;;;6.07;5.47;;;15.50;97.70;;;;;;5012257;28;20479;-68
2021/10/28 08:59:11;;;;;;;5.33;4.27;;;16.00;95.30;;;;;;5012347;28;20439;-68
2021/10/28 09:25:16;;;;;;;8.23;7.63;;;18.70;89.90;;;;;;5011975;28;20441;-67
2021/10/28 09:27:47;;;;;;;5.93;5.43;;;18.90;89.70;;;;;;5012703;28;20433;-67
2021/10/28 09:30:30;;;;;;;6.70;6.10;;;19.20;90.10;;;;;;5012307;28;20414;-68
2021/10/28 09:33:12;;;;;;;6.57;6.07;;;19.40;88.60;;;;;;4994475;28;20836;-68
2021/10/28 09:36:00;;;;;;;6.57;5.87;;;19.70;86.00;;;;;;5012479;28;20810;-67
2021/10/28 09:47:46;;;;;;;7.70;7.10;;;19.90;83.80;;;;;;5016273;28;20402;-68
2021/10/28 09:50:53;;;;;;;6.23;5.70;;;19.90;84.00;;;;;;5015627;28;21069;-68
2021/10/28 09:53:08;;;;;;;6.50;6.00;;;20.10;84.00;;;;;;5010084;28;20473;-68
2021/10/28 09:58:27;;;;;;;10.23;6.80;;;20.20;81.10;;;;;;5015425;28;20398;-68
2021/10/28 10:00:54;;;;;;;9.93;9.17;;;20.20;79.90;;;;;;4998304;28;20390;-82
2021/10/28 10:03:24;;;;;;;7.00;6.30;;;20.10;79.00;;;;;;5015710;28;20492;-68
2021/10/28 10:06:13;;;;;;;7.37;6.67;;;20.10;80.30;;;;;;5015872;28;20429;-68
2021/10/28 10:08:39;;;;;;;7.17;6.57;;;20.40;82.30;;;;;;5015882;28;20536;-68
2021/10/28 10:11:05;;;;;;;6.63;6.03;;;20.70;79.60;;;;;;5014829;28;20501;-68
2021/10/28 10:13:31;;;;;;;6.83;6.33;;;21.00;80.70;;;;;;5015433;28;20863;-68
2021/10/28 10:16:00;;;;;;;5.90;5.50;;;21.20;79.50;;;;;;5015033;28;20287;-68
2021/10/28 10:18:27;;;;;;;7.70;6.80;;;21.50;79.80;;;;;;5015415;28;20920;-68
2021/10/28 10:23:56;;;;;;;6.37;5.87;;;21.90;74.50;;;;;;5015606;28;20418;-68
2021/10/28 11:23:11;;;;;;;5.83;5.43;;;23.20;66.30;;;;;;5013940;28;20406;-68
2021/10/28 11:29:21;;;;;;;8.00;7.40;;;23.70;66.30;;;;;;4973141;28;20510;-68
2021/10/28 12:50:21;;;;;;;7.60;7.10;;;19.10;74.00;;;;;;5012962;28;20398;-68
2021/10/28 13:02:18;;;;;;;6.77;6.27;;;18.80;75.10;;;;;;5013057;28;20866;-68
2021/10/28 13:04:06;;;;;;;6.47;5.93;;;18.80;74.80;;;;;;5012862;28;20516;-68
2021/10/28 14:28:21;;;;;;;6.23;5.80;;;19.40;72.70;;;;;;5014069;28;20398;-68
2021/10/28 14:38:55;;;;;;;8.30;6.40;;;19.40;72.60;;;;;;5013495;28;20438;-69
2021/10/28 15:28:02;;;;;;;8.10;7.30;;;18.20;78.90;;;;;;5014300;28;20416;-69
2021/10/28 15:35:44;;;;;;;7.90;7.17;;;18.00;80.10;;;;;;5014033;28;20442;-69
2021/10/28 15:54:25;;;;;;;10.97;9.53;;;17.40;84.70;;;;;;5014110;28;20562;-69
2021/10/28 15:57:05;;;;;;;10.43;9.50;;;17.40;85.10;;;;;;5013616;28;20473;-69
2021/10/28 16:23:54;;;;;;;12.50;11.40;;;17.00;89.30;;;;;;5013366;28;20402;-68
2021/10/28 16:26:20;;;;;;;13.97;10.40;;;17.00;89.90;;;;;;4978995;28;20956;-69
2021/10/28 16:28:46;;;;;;;13.13;11.50;;;17.00;90.20;;;;;;4995858;28;20175;-69
2021/10/28 16:31:16;;;;;;;13.90;12.50;;;16.90;90.40;;;;;;5013192;28;20916;-68
2021/10/28 16:33:41;;;;;;;12.80;11.37;;;16.80;90.50;;;;;;5013224;28;20183;-68
2021/10/28 16:36:08;;;;;;;15.63;14.23;;;16.90;90.70;;;;;;4995656;28;20457;-69
2021/10/28 16:38:34;;;;;;;13.73;12.23;;;16.80;90.90;;;;;;4995118;28;20228;-69
2021/10/28 16:40:59;;;;;;;15.33;13.23;;;16.80;91.00;;;;;;5013044;28;20782;-69
2021/10/28 16:43:25;;;;;;;15.47;13.87;;;16.80;91.00;;;;;;5011979;28;20462;-69
2021/10/28 16:45:51;;;;;;;12.80;11.40;;;16.70;91.20;;;;;;5013032;28;20201;-69
2021/10/28 16:48:17;;;;;;;14.93;13.33;;;16.70;91.30;;;;;;5012274;28;20310;-79
2021/10/28 16:50:44;;;;;;;15.30;13.33;;;16.70;91.60;;;;;;4994004;28;20931;-69
2021/10/28 16:53:10;;;;;;;15.90;14.20;;;16.50;92.20;;;;;;4995158;28;20414;-68
2021/10/28 16:55:36;;;;;;;15.93;14.23;;;16.40;92.30;;;;;;5011714;28;20902;-69
2021/10/28 16:58:02;;;;;;;16.33;14.93;;;16.40;92.40;;;;;;5012264;28;20413;-68
2021/10/28 17:00:28;;;;;;;15.70;14.17;;;16.30;92.60;;;;;;5012098;28;20472;-69
2021/10/28 17:02:54;;;;;;;16.30;14.60;;;16.20;92.80;;;;;;5012436;28;20459;-74
2021/10/28 17:05:19;;;;;;;17.93;16.03;;;16.10;93.20;;;;;;5010825;28;20430;-78
2021/10/28 17:07:46;;;;;;;18.17;16.30;;;16.10;93.20;;;;;;5012361;28;20225;-69
2021/10/28 17:10:12;;;;;;;16.80;15.10;;;16.00;93.60;;;;;;5012609;28;20409;-69
2021/10/28 17:12:40;;;;;;;17.73;15.90;;;15.90;93.80;;;;;;5012299;28;21175;-69
2021/10/28 17:15:07;;;;;;;16.07;14.47;;;15.80;93.90;;;;;;5012522;28;20435;-69
2021/10/28 17:17:33;;;;;;;18.10;16.30;;;15.80;94.10;;;;;;5011329;28;20465;-68
2021/10/28 17:20:05;;;;;;;18.63;15.07;;;15.80;94.20;;;;;;5012527;28;20420;-67
2021/10/28 17:22:32;;;;;;;17.37;15.67;;;15.60;94.30;;;;;;5011657;28;20174;-70
2021/10/28 17:24:59;;;;;;;17.90;16.00;;;15.70;94.50;;;;;;5012048;28;20429;-68
2021/10/28 17:27:25;;;;;;;16.27;14.50;;;15.60;94.40;;;;;;4994222;28;20934;-69
2021/10/28 17:29:50;;;;;;;18.90;15.60;;;15.50;94.80;;;;;;5011935;28;20428;-68
2021/10/28 17:32:16;;;;;;;16.73;14.90;;;15.40;94.90;;;;;;4994665;28;20189;-68
2021/10/28 17:34:42;;;;;;;18.83;16.33;;;15.50;95.00;;;;;;5011147;28;20191;-68
2021/10/28 17:37:08;;;;;;;18.10;16.20;;;15.40;95.00;;;;;;5011588;28;20670;-68
2021/10/28 17:39:34;;;;;;;125.53;84.17;;;15.20;95.30;;;;;;4993442;28;20609;-68
2021/10/28 17:42:00;;;;;;;49.13;38.23;;;15.20;95.80;;;;;;5011962;28;20236;-68
2021/10/28 17:44:37;;;;;;;19.53;17.43;;;15.10;95.90;;;;;;5011072;28;20483;-69
2021/10/28 17:47:04;;;;;;;17.50;15.80;;;15.10;95.90;;;;;;5012259;28;20522;-70
2021/10/28 17:49:30;;;;;;;18.13;15.27;;;15.10;96.40;;;;;;5004630;28;20497;-69
2021/10/28 17:51:56;;;;;;;18.47;16.27;;;15.10;96.40;;;;;;4994177;28;20457;-69
2021/10/28 17:54:21;;;;;;;16.10;14.40;;;15.10;96.20;;;;;;5014690;28;20427;-78
2021/10/28 17:56:47;;;;;;;16.37;14.47;;;15.00;97.00;;;;;;5011127;28;20501;-69
2021/10/28 17:59:13;;;;;;;19.30;17.30;;;15.10;96.80;;;;;;5011906;28;20184;-69
2021/10/28 18:01:39;;;;;;;17.20;15.40;;;15.00;97.00;;;;;;5009461;28;20204;-69
2021/10/28 18:04:06;;;;;;;17.07;15.47;;;15.00;97.10;;;;;;4996555;28;20182;-69
2021/10/28 18:06:32;;;;;;;18.63;16.57;;;15.10;97.10;;;;;;5013240;28;20431;-69
2021/10/28 18:09:01;;;;;;;17.97;16.07;;;15.10;97.00;;;;;;5013690;28;20431;-69
2021/10/28 18:11:27;;;;;;;20.00;17.50;;;15.10;96.80;;;;;;5017336;28;20459;-70
2021/10/28 18:13:56;;;;;;;19.77;17.67;;;15.10;96.30;;;;;;5014161;28;20907;-69
2021/10/28 18:16:25;;;;;;;20.07;17.97;;;15.00;96.50;;;;;;5013897;28;20557;-80
2021/10/28 18:18:55;;;;;;;18.43;16.50;;;14.90;97.20;;;;;;5014879;28;20418;-69
2021/10/28 18:21:25;;;;;;;18.57;16.57;;;14.90;97.00;;;;;;5015077;28;20527;-79
2021/10/28 18:23:54;;;;;;;20.00;17.90;;;14.80;96.80;;;;;;5015101;28;20525;-69
2021/10/28 18:26:23;;;;;;;18.83;15.83;;;14.80;97.10;;;;;;5014765;28;20423;-69
2021/10/28 18:28:50;;;;;;;22.40;20.10;;;14.80;97.10;;;;;;5014719;28;20427;-67
2021/10/28 18:31:17;;;;;;;20.40;18.33;;;14.70;97.20;;;;;;5013912;28;20192;-67
2021/10/28 18:33:45;;;;;;;20.40;18.30;;;14.70;97.10;;;;;;5014041;28;20466;-67
2021/10/28 18:36:12;;;;;;;22.17;16.93;;;14.70;97.10;;;;;;5013886;28;20470;-67
2021/10/28 18:38:44;;;;;;;21.87;17.60;;;14.60;97.20;;;;;;5004316;28;20435;-68
2021/10/28 18:41:10;;;;;;;19.83;17.70;;;14.60;97.10;;;;;;4995380;28;20417;-67
2021/10/28 18:43:36;;;;;;;19.93;16.60;;;14.70;97.10;;;;;;4997077;28;20451;-67
2021/10/28 18:46:02;;;;;;;20.57;16.90;;;14.60;96.90;;;;;;5014542;28;20441;-67
2021/10/28 18:48:28;;;;;;;19.03;16.53;;;14.60;97.10;;;;;;4996403;28;20427;-67
2021/10/28 18:50:54;;;;;;;22.20;19.30;;;14.50;96.80;;;;;;5014767;28;20450;-67
2021/10/28 18:53:21;;;;;;;22.70;19.33;;;14.30;97.30;;;;;;5014761;28;20410;-67
2021/10/28 18:55:47;;;;;;;25.83;20.73;;;14.00;98.00;;;;;;4996945;28;20418;-69
2021/10/28 18:58:12;;;;;;;22.27;19.97;;;13.90;98.30;;;;;;5016755;28;20772;-67
2021/10/28 19:00:38;;;;;;;23.03;19.47;;;13.90;98.60;;;;;;5012088;28;20258;-68
2021/10/28 19:03:04;;;;;;;18.40;16.40;;;14.00;98.60;;;;;;5012877;28;20595;-72
2021/10/28 19:05:30;;;;;;;21.60;16.77;;;14.10;98.20;;;;;;5012098;28;20187;-68
2021/10/28 19:07:56;;;;;;;17.90;16.00;;;14.10;98.10;;;;;;5013915;28;20435;-67
2021/10/28 19:10:22;;;;;;;20.47;17.40;;;14.00;97.90;;;;;;5014315;28;20521;-67
2021/10/28 19:12:48;;;;;;;22.90;17.00;;;14.00;98.30;;;;;;5013157;28;20991;-67
2021/10/28 19:15:15;;;;;;;20.67;16.50;;;13.90;98.20;;;;;;5013149;28;20465;-67
2021/10/28 19:17:45;;;;;;;22.03;17.60;;;13.80;98.20;;;;;;5013333;28;20464;-67
2021/10/28 19:20:11;;;;;;;21.50;16.87;;;13.80;98.50;;;;;;5014314;28;20794;-67
2021/10/28 19:22:37;;;;;;;19.43;16.40;;;13.80;98.30;;;;;;5013147;28;20418;-67
2021/10/28 19:25:04;;;;;;;18.70;16.70;;;13.80;98.60;;;;;;5013344;28;20433;-67
2021/10/28 19:27:30;;;;;;;17.30;14.97;;;13.70;98.50;;;;;;5013222;28;20187;-67
2021/10/28 19:30:17;;;;;;;19.23;15.87;;;13.60;98.80;;;;;;5013982;28;20471;-68
2021/10/28 19:32:42;;;;;;;20.37;16.07;;;13.50;98.90;;;;;;5012263;28;20426;-67
2021/10/28 19:35:07;;;;;;;21.50;17.43;;;13.50;98.80;;;;;;5013692;28;20763;-67
2021/10/28 19:37:45;;;;;;;18.90;16.33;;;13.40;99.20;;;;;;5012377;28;20461;-68
2021/10/28 19:48:16;;;;;;;18.50;16.17;;;13.30;99.50;;;;;;5013824;28;20500;-67
2021/10/28 19:50:43;;;;;;;18.83;15.77;;;13.30;99.50;;;;;;5012802;28;20419;-67
2021/10/28 19:53:09;;;;;;;22.13;16.80;;;13.30;99.50;;;;;;5013567;28;20420;-67
2021/10/28 19:55:37;;;;;;;17.37;15.37;;;13.30;99.60;;;;;;5012517;28;20421;-67
2021/10/28 19:58:03;;;;;;;20.37;16.57;;;13.20;99.60;;;;;;5013632;28;20460;-67
2021/10/28 20:00:36;;;;;;;25.33;19.80;;;13.20;99.90;;;;;;5013158;28;20475;-75
2021/10/28 20:03:20;;;;;;;23.50;18.67;;;13.20;99.80;;;;;;5013766;28;20454;-67
2021/10/28 20:13:08;;;;;;;16.83;14.70;;;13.20;99.90;;;;;;5013151;28;20397;-76
2021/10/28 20:14:12;;;;;;;17.80;14.80;;;13.40;99.50;;;;;;5013173;28;20424;-67
2021/10/28 20:22:07;;;;;;;19.50;15.17;;;13.60;98.70;;;;;;5013316;28;20398;-67
2021/10/28 20:24:32;;;;;;;19.37;14.07;;;13.70;98.70;;;;;;5012249;28;20951;-68
2021/10/28 20:26:58;;;;;;;18.80;14.47;;;13.70;98.40;;;;;;4994242;28;20195;-67
2021/10/28 20:29:24;;;;;;;16.40;14.03;;;13.70;98.50;;;;;;5013029;28;20179;-67
2021/10/28 20:31:49;;;;;;;17.13;14.30;;;13.70;98.50;;;;;;4994112;28;20201;-68
2021/10/28 20:34:27;;;;;;;16.83;15.03;;;13.70;98.20;;;;;;5013232;28;20551;-68
2021/10/28 20:37:05;;;;;;;17.93;14.90;;;13.70;98.50;;;;;;4996528;28;20290;-67
2021/10/28 20:39:32;;;;;;;17.07;14.90;;;13.80;98.40;;;;;;4994795;28;20419;-76
2021/10/28 20:41:58;;;;;;;18.40;14.53;;;13.70;98.10;;;;;;5012476;28;20829;-67
2021/10/28 20:44:25;;;;;;;15.03;13.10;;;13.80;98.20;;;;;;4994791;28;20437;-69
2021/10/28 20:46:51;;;;;;;15.80;13.00;;;13.90;98.20;;;;;;5011549;28;20640;-70
2021/10/28 20:49:16;;;;;;;16.47;13.97;;;13.90;99.70;;;;;;5011385;28;20441;-69
2021/10/28 20:51:42;;;;;;;17.40;13.13;;;14.00;99.90;;;;;;5011321;28;20540;-70
2021/10/28 20:54:08;;;;;;;17.27;13.03;;;14.00;99.20;;;;;;5012527;28;20329;-70
2021/10/28 20:56:34;;;;;;;16.20;13.40;;;14.00;99.30;;;;;;5011585;28;20623;-75
2021/10/28 20:59:00;;;;;;;13.60;12.20;;;14.00;99.60;;;;;;5010609;28;20426;-69
2021/10/28 21:01:26;;;;;;;16.97;13.73;;;14.10;99.60;;;;;;4994867;28;20762;-69
2021/10/28 21:03:52;;;;;;;14.53;13.03;;;14.20;98.40;;;;;;5011560;28;20315;-69
2021/10/28 21:06:19;;;;;;;16.63;14.40;;;14.10;98.60;;;;;;5012307;28;20767;-69
2021/10/28 21:08:45;;;;;;;17.57;13.57;;;14.20;98.60;;;;;;5011650;28;20412;-69
2021/10/28 21:11:11;;;;;;;15.73;14.03;;;14.30;99.50;;;;;;5012408;28;20422;-70
2021/10/28 21:13:37;;;;;;;13.87;12.37;;;14.20;98.30;;;;;;5011249;28;20433;-70
2021/10/28 21:16:03;;;;;;;14.87;11.73;;;14.20;98.90;;;;;;5011805;28;20274;-70
2021/10/28 21:18:28;;;;;;;15.27;13.47;;;14.30;98.20;;;;;;4992425;28;20793;-70
2021/10/28 21:20:54;;;;;;;13.77;12.20;;;14.30;98.30;;;;;;4991949;28;20429;-70
2021/10/28 21:23:20;;;;;;;16.10;11.90;;;14.30;97.40;;;;;;4992743;28;20176;-72
2021/10/28 21:25:47;;;;;;;16.90;14.30;;;14.30;99.10;;;;;;4992227;28;20481;-69
2021/10/28 21:28:14;;;;;;;16.10;13.43;;;14.30;98.20;;;;;;4993838;28;20179;-70
2021/10/28 21:30:42;;;;;;;16.17;14.00;;;14.30;98.30;;;;;;5011506;28;20426;-70
2021/10/28 21:33:08;;;;;;;14.43;11.20;;;14.30;98.10;;;;;;5012267;28;20901;-69
2021/10/28 21:35:34;;;;;;;14.20;12.70;;;14.30;98.70;;;;;;4993914;28;20472;-69